Terminal Aerodrome Forecast
Issued by NWS Sterling, VA

Current Version | Previous Version | Graphics & Text | Print | Product List | Glossary On
Versions: 1 2 3 4 5 6 7 8 9 10 11 12 13 14 15 16 17 18 19 20 21
000
FTUS41 KLWX 250900 AAA
TAFMRB
TAF AMD
KMRB 250904Z 2509/2606 24007KT P6SM OVC040
     FM251700 33007KT P6SM OVC050
     FM252000 VRB03KT P6SM OVC050
     FM252300 VRB03KT 6SM -SN OVC050
     FM260000 VRB03KT 6SM -SN OVC015=

USA.gov is the U.S. government's official web portal to all federal, state and local government web resources and services.